createdAt,value
2018-02-08T00:00:44.386Z,100492.16
2018-02-08T00:03:11.878Z,100490.14
2018-02-08T00:05:39.342Z,100498.29
2018-02-08T00:08:06.823Z,100483.27
2018-02-08T00:10:34.290Z,100495.29
2018-02-08T00:13:01.772Z,100492.42
2018-02-08T00:15:29.259Z,100494.83
2018-02-08T00:17:56.746Z,100485.88
2018-02-08T00:20:24.210Z,100487.02
2018-02-08T00:22:51.729Z,100496.64
2018-02-08T00:25:19.223Z,100490.91
2018-02-08T00:27:46.714Z,100492.89
2018-02-08T00:30:14.183Z,100489.55
2018-02-08T00:32:41.666Z,100488.56
2018-02-08T00:35:09.130Z,100485.68
2018-02-08T00:37:36.610Z,100484.31
2018-02-08T00:40:04.070Z,100480.19
2018-02-08T00:42:31.562Z,100477.34
2018-02-08T00:44:59.147Z,100479.08
2018-02-08T00:47:26.630Z,100478.06
2018-02-08T00:49:54.097Z,100475.37
2018-02-08T00:52:21.591Z,100481.82
2018-02-08T00:54:49.065Z,100478.32
2018-02-08T00:57:16.734Z,100474.00
2018-02-08T00:59:44.189Z,100477.02
2018-02-08T01:02:11.648Z,100476.61
2018-02-08T01:04:39.135Z,100467.73
2018-02-08T01:07:06.594Z,100482.02
2018-02-08T01:09:34.084Z,100476.59
2018-02-08T01:12:01.546Z,100472.09
2018-02-08T01:14:29.097Z,100468.80
2018-02-08T01:16:56.518Z,100473.19
2018-02-08T01:19:23.998Z,100474.20
2018-02-08T01:21:51.455Z,100484.30
2018-02-08T01:24:18.940Z,100478.59
2018-02-08T01:26:46.438Z,100482.66
2018-02-08T01:29:13.919Z,100487.30
2018-02-08T01:31:41.391Z,100493.97
2018-02-08T01:34:08.890Z,100493.77
2018-02-08T01:36:36.359Z,100495.93
2018-02-08T01:39:03.838Z,100496.87
2018-02-08T01:41:31.306Z,100496.51
2018-02-08T01:43:58.818Z,100496.57
2018-02-08T01:46:26.291Z,100497.29
2018-02-08T01:48:53.781Z,100500.59
2018-02-08T01:51:21.251Z,100503.38
2018-02-08T01:53:48.735Z,100498.64
2018-02-08T01:56:16.194Z,100496.84
2018-02-08T01:58:43.678Z,100496.21
2018-02-08T02:01:11.143Z,100491.50
2018-02-08T02:03:38.636Z,100489.91
2018-02-08T02:06:06.095Z,100494.83
2018-02-08T02:08:33.580Z,100491.86
2018-02-08T02:11:01.139Z,100496.45
2018-02-08T02:13:28.622Z,100491.50
2018-02-08T02:15:56.092Z,100489.64
2018-02-08T02:18:23.579Z,100490.33
2018-02-08T02:20:51.049Z,100482.41
2018-02-08T02:23:18.537Z,100485.95
2018-02-08T02:25:46.019Z,100483.03
2018-02-08T02:28:13.483Z,100487.84
2018-02-08T02:30:40.980Z,100487.95
2018-02-08T02:33:08.447Z,100482.89
2018-02-08T02:35:35.922Z,100490.42
2018-02-08T02:38:03.402Z,100485.66
2018-02-08T02:40:30.888Z,100491.74
2018-02-08T02:42:58.376Z,100487.75
2018-02-08T02:45:25.856Z,100493.98
2018-02-08T02:47:53.318Z,100493.08
2018-02-08T02:50:20.817Z,100488.00
2018-02-08T02:52:48.299Z,100489.54
2018-02-08T02:55:15.804Z,100482.13
2018-02-08T02:57:43.279Z,100489.06
2018-02-08T03:00:10.771Z,100488.70
2018-02-08T03:02:38.235Z,100488.44
2018-02-08T03:05:05.718Z,100492.94
2018-02-08T03:07:33.194Z,100493.51
2018-02-08T03:10:00.694Z,100491.14
2018-02-08T03:12:28.154Z,100495.31
2018-02-08T03:14:55.638Z,100500.32
2018-02-08T03:17:23.111Z,100498.52
2018-02-08T03:19:50.599Z,100495.31
2018-02-08T03:22:18.068Z,100495.87
2018-02-08T03:24:45.559Z,100506.77
2018-02-08T03:27:13.023Z,100501.63
2018-02-08T03:29:40.505Z,100503.55
2018-02-08T03:32:07.996Z,100512.52
2018-02-08T03:34:35.491Z,100508.13
2018-02-08T03:37:02.966Z,100509.45
2018-02-08T03:39:30.462Z,100515.45
2018-02-08T03:41:57.930Z,100510.97
2018-02-08T03:44:25.417Z,100512.33
2018-02-08T03:46:52.990Z,100519.33
2018-02-08T03:49:20.470Z,100520.64
2018-02-08T03:51:47.933Z,100515.86
2018-02-08T03:54:15.418Z,100513.16
2018-02-08T03:56:42.906Z,100516.82
2018-02-08T03:59:10.369Z,100520.13
2018-02-08T04:01:37.851Z,100531.30
2018-02-08T04:04:05.312Z,100521.66
2018-02-08T04:06:32.804Z,100523.30
2018-02-08T04:09:00.406Z,100518.80
2018-02-08T04:11:27.886Z,100527.11
2018-02-08T04:13:55.360Z,100524.40
2018-02-08T04:16:22.851Z,100531.80
2018-02-08T04:18:50.318Z,100533.42
2018-02-08T04:21:17.819Z,100537.17
2018-02-08T04:23:45.302Z,100533.22
2018-02-08T04:26:12.786Z,100540.50
2018-02-08T04:28:40.254Z,100539.63
2018-02-08T04:31:07.743Z,100536.47
2018-02-08T04:33:35.210Z,100541.85
2018-02-08T04:36:02.700Z,100546.35
2018-02-08T04:38:41.941Z,100547.50
2018-02-08T04:41:21.101Z,100546.77
2018-02-08T04:44:00.456Z,100542.03
2018-02-08T04:46:39.725Z,100540.41
2018-02-08T04:49:07.230Z,100541.95
2018-02-08T04:51:34.713Z,100544.38
2018-02-08T04:54:02.205Z,100542.80
2018-02-08T04:56:29.854Z,100543.67
2018-02-08T04:58:57.322Z,100548.75
2018-02-08T05:01:24.806Z,100545.07
2018-02-08T05:03:52.262Z,100542.02
2018-02-08T05:06:19.746Z,100551.38
2018-02-08T05:08:47.216Z,100554.23
2018-02-08T05:11:14.707Z,100551.87
2018-02-08T05:13:42.171Z,100561.27
2018-02-08T05:16:09.657Z,100555.87
2018-02-08T05:18:37.120Z,100550.88
2018-02-08T05:21:04.604Z,100556.88
2018-02-08T05:23:32.071Z,100550.59
2018-02-08T05:25:59.718Z,100550.05
2018-02-08T05:28:27.191Z,100553.61
2018-02-08T05:30:54.686Z,100552.48
2018-02-08T05:33:22.175Z,100553.95
2018-02-08T05:35:49.678Z,100551.64
2018-02-08T05:38:17.162Z,100550.61
2018-02-08T05:40:44.631Z,100555.52
2018-02-08T05:43:12.111Z,100552.04
2018-02-08T05:45:39.570Z,100554.05
2018-02-08T05:48:07.059Z,100565.24
2018-02-08T05:50:34.531Z,100561.77
2018-02-08T05:53:02.015Z,100568.02
2018-02-08T05:55:29.479Z,100570.70
2018-02-08T05:57:56.959Z,100576.80
2018-02-08T06:00:24.458Z,100578.70
2018-02-08T06:02:51.950Z,100575.95
2018-02-08T06:05:19.434Z,100576.15
2018-02-08T06:07:46.919Z,100582.00
2018-02-08T06:10:14.390Z,100585.20
2018-02-08T06:12:41.876Z,100586.94
2018-02-08T06:15:09.338Z,100588.67
2018-02-08T06:17:36.912Z,100595.05
2018-02-08T06:20:04.385Z,100592.80
2018-02-08T06:22:31.883Z,100591.61
2018-02-08T06:25:00.497Z,100597.59
2018-02-08T06:27:27.962Z,100597.27
2018-02-08T06:29:55.427Z,100595.82
2018-02-08T06:32:22.927Z,100602.16
2018-02-08T06:34:50.394Z,100598.06
2018-02-08T06:37:17.877Z,100601.41
2018-02-08T06:39:45.351Z,100603.00
2018-02-08T06:42:12.831Z,100608.99
2018-02-08T06:47:14.030Z,100599.30
2018-02-08T06:49:41.491Z,100602.72
2018-02-08T06:52:08.984Z,100603.53
2018-02-08T06:54:36.458Z,100602.09
2018-02-08T06:57:03.940Z,100606.36
2018-02-08T06:59:31.403Z,100608.61
2018-02-08T07:01:58.864Z,100609.69
2018-02-08T07:04:26.345Z,100611.73
2018-02-08T07:06:53.814Z,100611.43
2018-02-08T07:09:21.299Z,100615.75
2018-02-08T07:11:48.764Z,100622.10
2018-02-08T07:14:16.247Z,100623.96
2018-02-08T07:16:43.714Z,100627.72
2018-02-08T07:19:11.199Z,100635.10
2018-02-08T07:21:38.668Z,100635.05
2018-02-08T07:24:06.147Z,100636.44
2018-02-08T07:26:33.614Z,100641.77
2018-02-08T07:29:01.104Z,100639.81
2018-02-08T07:31:28.683Z,100641.55
2018-02-08T07:33:56.208Z,100644.80
2018-02-08T07:36:23.672Z,100633.97
2018-02-08T07:38:51.165Z,100637.54
2018-02-08T07:41:18.634Z,100644.32
2018-02-08T07:43:46.160Z,100639.40
2018-02-08T07:46:13.629Z,100640.37
2018-02-08T07:48:41.114Z,100649.02
2018-02-08T07:51:08.587Z,100642.69
2018-02-08T07:53:36.080Z,100648.23
2018-02-08T07:56:03.552Z,100645.48
2018-02-08T07:58:31.043Z,100653.06
2018-02-08T08:00:58.513Z,100644.37
2018-02-08T08:03:26.003Z,100648.73
2018-02-08T08:05:53.518Z,100650.16
2018-02-08T08:08:21.030Z,100645.96
2018-02-08T08:10:48.530Z,100651.88
2018-02-08T08:13:16.024Z,100655.84
2018-02-08T08:15:43.497Z,100652.30
2018-02-08T08:18:10.990Z,100644.27
2018-02-08T08:20:38.459Z,100650.36
2018-02-08T08:23:05.936Z,100649.94
2018-02-08T08:25:33.428Z,100655.98
2018-02-08T08:28:00.899Z,100646.89
2018-02-08T08:30:28.395Z,100650.87
2018-02-08T08:32:55.854Z,100655.61
2018-02-08T08:35:23.346Z,100658.55
2018-02-08T08:37:50.850Z,100656.29
2018-02-08T08:40:18.331Z,100649.63
2018-02-08T08:42:45.804Z,100662.59
2018-02-08T08:45:13.303Z,100665.91
2018-02-08T08:47:40.775Z,100666.84
2018-02-08T08:50:08.268Z,100670.45
2018-02-08T08:52:35.743Z,100666.50
2018-02-08T08:55:03.235Z,100672.16
2018-02-08T08:57:30.710Z,100682.77
2018-02-08T08:59:58.194Z,100675.98
2018-02-08T09:02:25.674Z,100682.40
2018-02-08T09:04:53.167Z,100680.79
2018-02-08T09:07:20.634Z,100676.43
2018-02-08T09:09:48.123Z,100674.78
2018-02-08T09:12:15.613Z,100678.89
2018-02-08T09:14:43.318Z,100678.00
2018-02-08T09:17:10.787Z,100672.33
2018-02-08T09:19:38.270Z,100680.86
2018-02-08T09:22:05.737Z,100678.28
2018-02-08T09:24:33.258Z,100684.75
2018-02-08T09:27:00.725Z,100680.91
2018-02-08T09:29:28.217Z,100689.65
2018-02-08T09:31:55.710Z,100692.85
2018-02-08T09:34:23.207Z,100695.72
2018-02-08T09:36:50.675Z,100695.07
2018-02-08T09:39:18.171Z,100697.37
2018-02-08T09:41:45.646Z,100693.82
2018-02-08T09:44:13.166Z,100694.98
2018-02-08T09:46:40.634Z,100697.89
2018-02-08T09:49:08.103Z,100684.38
2018-02-08T09:51:35.610Z,100686.20
2018-02-08T09:54:03.081Z,100691.59
2018-02-08T09:56:30.575Z,100687.73
2018-02-08T09:58:58.038Z,100691.56
2018-02-08T10:01:25.520Z,100688.42
2018-02-08T10:03:52.991Z,100693.33
2018-02-08T10:06:21.046Z,100698.80
2018-02-08T10:08:49.423Z,100703.64
2018-02-08T10:11:17.771Z,100699.13
2018-02-08T10:13:45.340Z,100702.56
2018-02-08T10:16:12.935Z,100702.14
2018-02-08T10:18:40.457Z,100708.56
2018-02-08T10:21:07.951Z,100714.63
2018-02-08T10:23:35.430Z,100714.81
2018-02-08T10:26:02.915Z,100709.41
2018-02-08T10:28:30.427Z,100703.56
2018-02-08T10:30:57.884Z,100702.58
2018-02-08T10:33:25.360Z,100698.45
2018-02-08T10:35:52.858Z,100692.25
2018-02-08T10:38:20.321Z,100686.80
2018-02-08T10:40:47.944Z,100687.09
2018-02-08T10:43:15.406Z,100679.45
2018-02-08T10:45:43.835Z,100685.91
2018-02-08T10:48:11.298Z,100675.28
2018-02-08T10:50:38.798Z,100679.68
2018-02-08T10:53:06.495Z,100673.26
2018-02-08T10:55:33.975Z,100670.50
2018-02-08T10:58:01.444Z,100669.20
2018-02-08T11:00:29.159Z,100670.02
2018-02-08T11:02:56.636Z,100669.81
2018-02-08T11:05:25.131Z,100674.59
2018-02-08T11:07:52.603Z,100674.20
2018-02-08T11:10:20.091Z,100669.90
2018-02-08T11:12:47.552Z,100661.34
2018-02-08T11:15:15.018Z,100661.99
2018-02-08T11:17:42.506Z,100661.20
2018-02-08T11:20:09.999Z,100660.67
2018-02-08T11:22:37.501Z,100659.99
2018-02-08T11:25:05.003Z,100661.22
2018-02-08T11:27:32.523Z,100670.84
2018-02-08T11:29:59.997Z,100671.98
2018-02-08T11:32:27.515Z,100670.13
2018-02-08T11:34:55.011Z,100675.38
2018-02-08T11:37:22.537Z,100671.23
2018-02-08T11:39:50.012Z,100670.17
2018-02-08T11:42:17.515Z,100667.37
2018-02-08T11:44:44.995Z,100664.88
2018-02-08T11:47:12.661Z,100663.28
2018-02-08T11:49:40.135Z,100659.52
2018-02-08T11:52:07.779Z,100661.39
2018-02-08T11:54:35.248Z,100654.11
2018-02-08T11:57:03.073Z,100648.74
2018-02-08T11:59:30.579Z,100652.25
2018-02-08T12:01:58.087Z,100655.13
2018-02-08T12:04:25.576Z,100656.89
2018-02-08T12:06:53.075Z,100656.83
2018-02-08T12:09:20.959Z,100657.05
2018-02-08T12:11:48.456Z,100646.86
2018-02-08T12:14:20.172Z,100647.06
2018-02-08T12:16:48.171Z,100641.03
2018-02-08T12:19:15.810Z,100641.14
2018-02-08T12:21:43.384Z,100641.77
2018-02-08T12:24:12.217Z,100635.39
2018-02-08T12:26:40.068Z,100635.11
2018-02-08T12:29:07.603Z,100628.56
2018-02-08T12:31:35.146Z,100628.98
2018-02-08T12:34:02.602Z,100631.84
2018-02-08T12:36:30.880Z,100628.19
2018-02-08T12:39:01.078Z,100627.84
2018-02-08T12:41:28.784Z,100625.66
2018-02-08T12:43:56.458Z,100622.39
2018-02-08T12:46:26.568Z,100624.61
2018-02-08T12:48:56.480Z,100610.77
2018-02-08T12:51:23.995Z,100616.29
2018-02-08T12:53:51.479Z,100618.84
2018-02-08T12:56:19.628Z,100613.17
2018-02-08T12:58:47.166Z,100612.39
2018-02-08T13:01:15.921Z,100612.84
2018-02-08T13:03:43.453Z,100612.44
2018-02-08T13:06:10.982Z,100608.49
2018-02-08T13:08:39.607Z,100612.58
2018-02-08T13:11:08.362Z,100608.89
2018-02-08T13:13:36.805Z,100608.73
2018-02-08T13:16:04.741Z,100607.82
2018-02-08T13:18:33.324Z,100604.71
2018-02-08T13:21:04.800Z,100603.13
2018-02-08T13:23:32.312Z,100601.87
2018-02-08T13:26:00.005Z,100597.94
2018-02-08T13:28:27.568Z,100595.80
2018-02-08T13:30:56.361Z,100594.77
2018-02-08T13:33:24.177Z,100594.48
2018-02-08T13:35:52.735Z,100589.56
2018-02-08T13:38:20.285Z,100590.95
2018-02-08T13:40:50.479Z,100593.50
2018-02-08T13:43:17.995Z,100595.07
2018-02-08T13:45:45.467Z,100590.48
2018-02-08T13:48:31.914Z,100588.01
2018-02-08T13:51:04.990Z,100578.49
2018-02-08T13:56:48.778Z,100583.40
2018-02-08T13:59:21.919Z,100575.72
2018-02-08T14:01:50.327Z,100582.45
2018-02-08T14:04:17.811Z,100581.89
2018-02-08T14:06:45.296Z,100579.42
2018-02-08T14:09:12.783Z,100585.88
2018-02-08T14:11:40.264Z,100575.64
2018-02-08T14:14:07.765Z,100574.48
2018-02-08T14:16:35.226Z,100571.56
2018-02-08T14:19:02.714Z,100570.58
2018-02-08T14:21:30.174Z,100571.67
2018-02-08T14:23:57.666Z,100572.39
2018-02-08T14:26:25.125Z,100580.66
2018-02-08T14:28:52.615Z,100581.75
2018-02-08T14:31:20.080Z,100576.93
2018-02-08T14:33:47.566Z,100572.28
2018-02-08T14:36:15.042Z,100565.67
2018-02-08T14:38:42.516Z,100567.06
2018-02-08T14:41:10.006Z,100560.66
2018-02-08T14:43:37.482Z,100558.58
2018-02-08T14:46:05.022Z,100554.42
2018-02-08T14:48:32.450Z,100559.77
2018-02-08T14:50:59.926Z,100552.98
2018-02-08T14:53:27.404Z,100558.64
2018-02-08T14:55:54.895Z,100552.59
2018-02-08T14:58:22.358Z,100554.64
2018-02-08T15:00:49.864Z,100550.34
2018-02-08T15:03:17.328Z,100546.77
2018-02-08T15:05:44.827Z,100545.55
2018-02-08T15:08:12.336Z,100541.38
2018-02-08T15:10:39.832Z,100537.09
2018-02-08T15:13:07.306Z,100542.48
2018-02-08T15:15:34.786Z,100544.70
2018-02-08T15:18:02.257Z,100544.77
2018-02-08T15:20:30.089Z,100543.03
2018-02-08T15:22:57.988Z,100541.87
2018-02-08T15:25:25.842Z,100538.54
2018-02-08T15:27:53.772Z,100543.23
2018-02-08T15:30:21.335Z,100540.78
2018-02-08T15:32:49.846Z,100536.66
2018-02-08T15:35:17.376Z,100537.38
2018-02-08T15:37:45.071Z,100541.91
2018-02-08T15:40:12.892Z,100537.94
2018-02-08T15:42:40.357Z,100545.00
2018-02-08T15:45:08.208Z,100539.36
2018-02-08T15:47:35.734Z,100535.16
2018-02-08T15:50:03.256Z,100531.41
2018-02-08T15:52:31.237Z,100530.52
2018-02-08T15:54:58.753Z,100529.22
2018-02-08T15:57:26.612Z,100526.42
2018-02-08T15:59:54.444Z,100526.30
2018-02-08T16:02:21.938Z,100519.94
2018-02-08T16:04:49.426Z,100524.20
2018-02-08T16:07:16.950Z,100521.30
2018-02-08T16:09:44.937Z,100518.43
2018-02-08T16:12:12.766Z,100514.19
2018-02-08T16:14:40.234Z,100513.84
2018-02-08T16:17:07.711Z,100514.31
2018-02-08T16:19:35.217Z,100514.40
2018-02-08T16:22:02.703Z,100510.63
2018-02-08T16:24:30.170Z,100513.18
2018-02-08T16:26:57.654Z,100507.53
2018-02-08T16:29:25.188Z,100508.69
2018-02-08T16:31:52.679Z,100503.36
2018-02-08T16:34:20.159Z,100505.59
2018-02-08T16:36:47.652Z,100505.14
2018-02-08T16:39:15.132Z,100508.60
2018-02-08T16:41:42.611Z,100506.39
2018-02-08T16:44:10.090Z,100504.09
2018-02-08T16:46:37.582Z,100498.88
2018-02-08T16:49:05.058Z,100503.64
2018-02-08T16:51:32.539Z,100501.50
2018-02-08T16:54:00.027Z,100500.36
2018-02-08T16:56:27.510Z,100511.63
2018-02-08T16:58:54.989Z,100517.31
2018-02-08T17:01:22.479Z,100519.05
2018-02-08T17:03:49.947Z,100522.45
2018-02-08T17:06:17.435Z,100522.22
2018-02-08T17:08:44.911Z,100521.55
2018-02-08T17:11:12.411Z,100522.47
2018-02-08T17:13:39.875Z,100522.61
2018-02-08T17:16:07.364Z,100524.44
2018-02-08T17:18:34.832Z,100533.56
2018-02-08T17:21:02.303Z,100536.30
2018-02-08T17:23:29.796Z,100534.66
2018-02-08T17:25:57.268Z,100537.55
2018-02-08T17:28:24.773Z,100532.41
2018-02-08T17:30:52.243Z,100527.83
2018-02-08T17:33:19.750Z,100525.66
2018-02-08T17:35:47.479Z,100521.40
2018-02-08T17:38:15.005Z,100523.56
2018-02-08T17:40:42.495Z,100524.71
2018-02-08T17:43:09.996Z,100523.03
2018-02-08T17:45:37.467Z,100524.91
2018-02-08T17:48:04.968Z,100522.05
2018-02-08T17:50:32.433Z,100531.78
2018-02-08T17:52:59.926Z,100536.04
2018-02-08T17:55:27.650Z,100527.70
2018-02-08T17:57:55.153Z,100523.02
2018-02-08T18:00:22.619Z,100520.48
2018-02-08T18:02:50.108Z,100523.38
2018-02-08T18:05:17.602Z,100526.92
2018-02-08T18:07:45.094Z,100521.42
2018-02-08T18:10:12.605Z,100516.71
2018-02-08T18:12:40.067Z,100515.22
2018-02-08T18:15:07.534Z,100512.33
2018-02-08T18:17:35.047Z,100517.47
2018-02-08T18:20:02.516Z,100513.42
2018-02-08T18:22:30.008Z,100507.38
2018-02-08T18:24:57.499Z,100517.94
2018-02-08T18:27:24.993Z,100519.55
2018-02-08T18:29:52.475Z,100520.69
2018-02-08T18:32:19.967Z,100511.70
2018-02-08T18:34:48.354Z,100511.05
2018-02-08T18:37:15.860Z,100509.83
2018-02-08T18:39:43.335Z,100512.89
2018-02-08T18:42:10.832Z,100513.52
2018-02-08T18:44:38.302Z,100509.88
2018-02-08T18:47:05.773Z,100509.67
2018-02-08T18:49:33.308Z,100511.06
2018-02-08T18:52:00.793Z,100513.11
2018-02-08T18:54:28.271Z,100510.14
2018-02-08T18:56:55.762Z,100513.95
2018-02-08T18:59:23.257Z,100514.12
2018-02-08T19:01:50.750Z,100515.58
2018-02-08T19:04:18.243Z,100521.45
2018-02-08T19:06:45.702Z,100525.63
2018-02-08T19:09:13.208Z,100532.30
2018-02-08T19:11:40.679Z,100530.58
2018-02-08T19:14:08.178Z,100525.70
2018-02-08T19:16:35.643Z,100522.97
2018-02-08T19:19:03.149Z,100525.83
2018-02-08T19:21:30.631Z,100525.15
2018-02-08T19:23:58.116Z,100523.21
2018-02-08T19:26:25.587Z,100517.63
2018-02-08T19:28:53.076Z,100513.66
2018-02-08T19:31:20.546Z,100516.34
2018-02-08T19:33:48.065Z,100513.53
2018-02-08T19:36:15.526Z,100510.23
2018-02-08T19:38:43.010Z,100515.89
2018-02-08T19:41:10.482Z,100514.40
2018-02-08T19:43:37.959Z,100513.30
2018-02-08T19:46:05.543Z,100520.18
2018-02-08T19:48:33.051Z,100514.40
2018-02-08T19:51:01.499Z,100503.12
2018-02-08T19:53:28.984Z,100507.75
2018-02-08T19:55:56.455Z,100505.52
2018-02-08T19:58:23.951Z,100502.52
2018-02-08T20:00:51.436Z,100488.21
2018-02-08T20:03:18.967Z,100502.13
2018-02-08T20:05:46.446Z,100492.09
2018-02-08T20:08:13.906Z,100491.28
2018-02-08T20:10:41.400Z,100502.88
2018-02-08T20:13:08.871Z,100502.13
2018-02-08T20:15:36.366Z,100496.16
2018-02-08T20:18:03.863Z,100500.47
2018-02-08T20:20:31.346Z,100504.21
2018-02-08T20:22:58.816Z,100492.30
2018-02-08T20:25:41.963Z,100493.23
2018-02-08T20:28:09.434Z,100491.30
2018-02-08T20:30:36.923Z,100492.20
2018-02-08T20:33:04.404Z,100484.36
2018-02-08T20:35:31.890Z,100486.30
2018-02-08T20:37:59.356Z,100491.48
2018-02-08T20:40:26.851Z,100493.32
2018-02-08T20:43:00.187Z,100484.86
2018-02-08T20:45:28.211Z,100485.11
2018-02-08T20:47:55.699Z,100479.68
2018-02-08T20:50:23.231Z,100486.13
2018-02-08T20:52:51.725Z,100484.03
2018-02-08T20:55:19.231Z,100486.26
2018-02-08T20:57:46.709Z,100488.48
2018-02-08T21:00:14.229Z,100486.64
2018-02-08T21:02:41.713Z,100481.77
2018-02-08T21:05:09.212Z,100475.11
2018-02-08T21:07:36.730Z,100481.30
2018-02-08T21:10:04.228Z,100477.02
2018-02-08T21:12:32.204Z,100476.56
2018-02-08T21:14:59.703Z,100484.02
2018-02-08T21:17:27.209Z,100475.20
2018-02-08T21:19:54.695Z,100476.58
2018-02-08T21:22:22.160Z,100473.88
2018-02-08T21:24:49.664Z,100476.58
2018-02-08T21:27:17.148Z,100477.86
2018-02-08T21:29:44.674Z,100467.96
2018-02-08T21:32:12.371Z,100471.89
2018-02-08T21:34:39.972Z,100468.03
2018-02-08T21:37:07.463Z,100464.77
2018-02-08T21:39:34.976Z,100461.44
2018-02-08T21:42:02.499Z,100461.41
2018-02-08T21:44:29.987Z,100448.95
2018-02-08T21:46:57.483Z,100449.42
2018-02-08T21:49:24.959Z,100451.06
2018-02-08T21:51:52.455Z,100440.97
2018-02-08T21:54:19.934Z,100434.16
2018-02-08T21:56:47.472Z,100436.22
2018-02-08T21:59:14.939Z,100435.12
2018-02-08T22:01:42.434Z,100439.51
2018-02-08T22:04:09.919Z,100443.89
2018-02-08T22:06:37.406Z,100434.44
2018-02-08T22:09:04.916Z,100432.77
2018-02-08T22:11:32.405Z,100432.48
2018-02-08T22:13:59.874Z,100426.69
2018-02-08T22:16:27.365Z,100419.83
2018-02-08T22:18:54.835Z,100421.30
2018-02-08T22:21:22.332Z,100418.46
2018-02-08T22:23:49.875Z,100415.55
2018-02-08T22:26:17.359Z,100422.22
2018-02-08T22:28:44.831Z,100412.40
2018-02-08T22:31:12.310Z,100409.97
2018-02-08T22:33:39.783Z,100413.94
2018-02-08T22:36:07.303Z,100413.44
2018-02-08T22:38:35.736Z,100416.34
2018-02-08T22:41:03.263Z,100409.15
2018-02-08T22:43:31.018Z,100403.98
2018-02-08T22:45:58.898Z,100415.44
2018-02-08T22:48:26.631Z,100411.86
2018-02-08T22:50:54.138Z,100407.83
2018-02-08T22:53:21.635Z,100418.66
2018-02-08T22:55:49.214Z,100415.38
2018-02-08T22:58:16.715Z,100412.05
2018-02-08T23:00:45.016Z,100418.24
2018-02-08T23:03:12.845Z,100418.46
2018-02-08T23:05:40.377Z,100426.87
2018-02-08T23:08:08.427Z,100420.00
2018-02-08T23:10:36.369Z,100417.89
2018-02-08T23:13:03.916Z,100422.69
2018-02-08T23:15:31.709Z,100412.26
2018-02-08T23:17:59.250Z,100418.29
2018-02-08T23:20:26.759Z,100411.96
2018-02-08T23:22:54.327Z,100411.22
2018-02-08T23:25:22.669Z,100409.37
2018-02-08T23:27:50.246Z,100405.75
2018-02-08T23:30:18.541Z,100406.27
2018-02-08T23:32:46.638Z,100408.08
2018-02-08T23:35:14.516Z,100402.58
2018-02-08T23:37:42.081Z,100407.91
2018-02-08T23:40:09.604Z,100407.77
2018-02-08T23:42:37.185Z,100398.19
2018-02-08T23:45:05.543Z,100397.52
2018-02-08T23:47:33.068Z,100405.30
2018-02-08T23:50:01.037Z,100397.27
2018-02-08T23:52:28.807Z,100397.11
2018-02-08T23:54:56.276Z,100390.11
2018-02-08T23:57:23.866Z,100392.27
2018-02-08T23:59:51.623Z,100386.13
